createdAt,value
2018-09-05T00:00:22.767Z,6.65
2018-09-05T00:03:00.409Z,5.50
2018-09-05T00:05:36.954Z,4.45
2018-09-05T00:08:13.814Z,4.20
2018-09-05T00:10:50.419Z,5.80
2018-09-05T00:13:26.606Z,4.67
2018-09-05T00:16:03.661Z,5.40
2018-09-05T00:18:39.530Z,4.70
2018-09-05T00:21:15.479Z,4.50
2018-09-05T00:23:51.521Z,4.37
2018-09-05T00:26:27.500Z,4.50
2018-09-05T00:29:04.973Z,5.17
2018-09-05T00:31:40.734Z,5.70
2018-09-05T00:34:16.189Z,4.50
2018-09-05T00:36:53.059Z,5.50
2018-09-05T00:39:28.798Z,4.40
2018-09-05T00:42:04.522Z,5.65
2018-09-05T00:44:40.578Z,4.50
2018-09-05T00:47:15.997Z,5.73
2018-09-05T00:49:53.030Z,5.20
2018-09-05T00:52:31.829Z,5.10
2018-09-05T00:55:07.743Z,5.30
2018-09-05T00:57:44.220Z,4.73
2018-09-05T01:00:21.402Z,4.85
2018-09-05T01:02:58.592Z,4.83
2018-09-05T01:05:34.210Z,5.67
2018-09-05T01:08:11.264Z,4.42
2018-09-05T01:10:48.986Z,5.63
2018-09-05T01:18:53.351Z,4.20
2018-09-05T01:21:32.946Z,4.73
2018-09-05T01:24:09.603Z,4.50
2018-09-05T01:26:46.472Z,4.67
2018-09-05T01:32:07.036Z,5.57
2018-09-05T01:34:45.750Z,4.93
2018-09-05T01:37:22.401Z,5.57
2018-09-05T01:39:58.753Z,4.42
2018-09-05T01:42:35.849Z,5.12
2018-09-05T01:45:13.184Z,4.78
2018-09-05T01:47:50.913Z,5.20
2018-09-05T01:50:31.078Z,4.90
2018-09-05T01:53:06.521Z,4.77
2018-09-05T01:55:42.535Z,5.30
2018-09-05T01:58:19.471Z,5.22
2018-09-05T02:00:55.618Z,4.60
2018-09-05T02:03:31.544Z,5.53
2018-09-05T02:06:07.829Z,4.33
2018-09-05T02:08:43.813Z,4.03
2018-09-05T02:11:23.628Z,3.60
2018-09-05T02:14:00.766Z,4.43
2018-09-05T02:16:36.570Z,4.00
2018-09-05T02:19:12.401Z,5.20
2018-09-05T02:21:48.303Z,3.87
2018-09-05T02:24:23.817Z,5.10
2018-09-05T02:26:59.768Z,6.20
2018-09-05T02:29:35.430Z,4.60
2018-09-05T02:32:11.411Z,4.08
2018-09-05T02:34:47.819Z,3.90
2018-09-05T02:37:23.661Z,3.98
2018-09-05T02:39:59.558Z,4.10
2018-09-05T02:42:35.641Z,3.90
2018-09-05T02:45:11.263Z,4.30
2018-09-05T02:47:46.994Z,4.20
2018-09-05T02:50:22.566Z,4.53
2018-09-05T02:52:58.250Z,4.60
2018-09-05T02:55:37.967Z,4.17
2018-09-05T02:58:15.459Z,4.50
2018-09-05T03:00:51.353Z,4.08
2018-09-05T03:03:26.929Z,4.30
2018-09-05T03:06:02.587Z,4.30
2018-09-05T03:08:38.288Z,4.33
2018-09-05T03:11:13.891Z,4.15
2018-09-05T03:13:49.635Z,4.35
2018-09-05T03:16:26.426Z,4.60
2018-09-05T03:19:04.109Z,3.80
2018-09-05T03:21:39.411Z,3.60
2018-09-05T03:24:15.000Z,3.87
2018-09-05T03:26:50.362Z,3.60
2018-09-05T03:29:27.618Z,3.45
2018-09-05T03:32:03.053Z,7.08
2018-09-05T03:34:38.853Z,4.83
2018-09-05T03:37:14.393Z,4.10
2018-09-05T03:39:49.878Z,8.35
2018-09-05T03:42:25.378Z,10.03
2018-09-05T03:45:01.294Z,10.82
2018-09-05T03:47:37.858Z,7.12
2018-09-05T03:50:13.679Z,8.95
2018-09-05T03:52:49.480Z,13.28
2018-09-05T03:55:25.038Z,12.60
2018-09-05T04:03:16.066Z,10.30
2018-09-05T04:05:51.898Z,9.45
2018-09-05T04:08:27.651Z,14.58
2018-09-05T04:11:03.582Z,6.72
2018-09-05T04:13:39.474Z,9.40
2018-09-05T04:16:15.249Z,7.90
2018-09-05T04:18:50.868Z,7.25
2018-09-05T04:21:27.032Z,5.80
2018-09-05T04:24:02.862Z,7.23
2018-09-05T04:26:39.613Z,10.73
2018-09-05T04:29:15.504Z,8.90
2018-09-05T04:31:51.408Z,8.35
2018-09-05T04:34:27.537Z,5.87
2018-09-05T04:37:02.976Z,7.50
2018-09-05T04:39:38.344Z,5.67
2018-09-05T04:43:02.976Z,5.73
2018-09-05T04:45:38.693Z,4.10
2018-09-05T04:48:14.443Z,5.45
2018-09-05T04:50:49.881Z,3.10
2018-09-05T04:55:34.877Z,3.20
2018-09-05T04:58:10.684Z,3.20
2018-09-05T05:00:46.169Z,3.40
2018-09-05T05:03:21.898Z,4.12
2018-09-05T05:05:58.141Z,4.78
2018-09-05T05:08:34.228Z,3.72
2018-09-05T05:11:10.167Z,8.45
2018-09-05T05:13:45.903Z,4.53
2018-09-05T05:16:21.673Z,4.83
2018-09-05T05:18:57.231Z,4.93
2018-09-05T05:21:32.984Z,5.35
2018-09-05T05:24:08.415Z,4.70
2018-09-05T05:26:44.419Z,4.45
2018-09-05T05:29:20.122Z,5.00
2018-09-05T05:31:56.341Z,4.30
2018-09-05T05:34:32.334Z,5.28
2018-09-05T05:37:07.748Z,5.00
2018-09-05T05:39:43.334Z,3.73
2018-09-05T05:42:19.390Z,4.30
2018-09-05T05:44:55.341Z,3.80
2018-09-05T05:47:30.952Z,4.47
2018-09-05T05:50:06.897Z,3.83
2018-09-05T05:55:30.918Z,4.30
2018-09-05T05:58:06.898Z,3.50
2018-09-05T06:00:43.179Z,7.97
2018-09-05T06:03:19.613Z,4.13
2018-09-05T06:05:55.756Z,5.72
2018-09-05T06:08:31.742Z,7.05
2018-09-05T06:11:09.230Z,4.08
2018-09-05T06:13:45.656Z,4.20
2018-09-05T06:16:21.698Z,6.55
2018-09-05T06:18:57.889Z,4.60
2018-09-05T06:21:33.854Z,6.53
2018-09-05T06:24:09.783Z,6.90
2018-09-05T06:26:46.189Z,6.40
2018-09-05T06:29:22.913Z,7.97
2018-09-05T06:31:59.728Z,7.10
2018-09-05T06:34:35.744Z,6.33
2018-09-05T06:37:11.784Z,4.80
2018-09-05T06:39:47.919Z,4.97
2018-09-05T06:42:23.958Z,6.50
2018-09-05T06:46:10.919Z,6.90
2018-09-05T06:48:46.866Z,5.75
2018-09-05T06:51:22.729Z,7.30
2018-09-05T06:53:58.757Z,5.75
2018-09-05T06:56:34.758Z,6.67
2018-09-05T06:59:11.109Z,7.00
2018-09-05T07:01:47.349Z,6.87
2018-09-05T07:04:23.867Z,8.20
2018-09-05T07:07:00.033Z,6.67
2018-09-05T07:09:35.976Z,5.90
2018-09-05T07:12:12.417Z,5.83
2018-09-05T07:14:48.752Z,6.70
2018-09-05T07:17:25.519Z,8.75
2018-09-05T07:20:01.874Z,8.60
2018-09-05T07:22:38.081Z,6.50
2018-09-05T07:25:14.234Z,8.70
2018-09-05T07:27:50.434Z,7.50
2018-09-05T07:30:26.798Z,6.43
2018-09-05T07:33:02.768Z,6.70
2018-09-05T07:35:38.766Z,8.00
2018-09-05T07:38:15.039Z,6.70
2018-09-05T07:40:50.931Z,7.13
2018-09-05T07:43:26.821Z,5.33
2018-09-05T07:46:03.249Z,7.70
2018-09-05T07:48:40.027Z,6.78
2018-09-05T07:51:16.237Z,6.77
2018-09-05T07:53:53.509Z,7.35
2018-09-05T07:56:30.542Z,6.80
2018-09-05T07:59:07.095Z,8.43
2018-09-05T08:01:43.602Z,7.28
2018-09-05T08:04:20.142Z,7.10
2018-09-05T08:06:56.013Z,7.23
2018-09-05T08:09:31.969Z,8.08
2018-09-05T08:12:08.148Z,7.85
2018-09-05T08:14:43.943Z,9.03
2018-09-05T08:17:19.822Z,7.10
2018-09-05T08:19:56.211Z,6.92
2018-09-05T08:22:32.530Z,7.50
2018-09-05T08:25:09.094Z,8.75
2018-09-05T08:27:45.470Z,6.65
2018-09-05T08:30:21.651Z,8.18
2018-09-05T08:32:57.690Z,7.60
2018-09-05T08:35:34.014Z,7.80
2018-09-05T08:38:10.393Z,7.58
2018-09-05T08:40:46.712Z,7.45
2018-09-05T08:43:22.995Z,6.95
2018-09-05T08:45:58.961Z,8.00
2018-09-05T08:48:35.067Z,9.50
2018-09-05T08:51:11.564Z,6.20
2018-09-05T08:53:47.666Z,6.47
2018-09-05T08:56:23.833Z,8.40
2018-09-05T08:59:00.070Z,7.33
2018-09-05T09:01:36.477Z,8.17
2018-09-05T09:04:12.569Z,6.45
2018-09-05T09:06:48.565Z,7.15
2018-09-05T09:09:24.973Z,7.67
2018-09-05T09:12:00.790Z,6.40
2018-09-05T09:14:37.025Z,7.30
2018-09-05T09:17:12.965Z,7.00
2018-09-05T09:19:48.968Z,7.42
2018-09-05T09:22:24.988Z,7.50
2018-09-05T09:25:01.035Z,9.13
2018-09-05T09:27:38.031Z,6.93
2018-09-05T09:30:14.197Z,7.12
2018-09-05T09:32:49.977Z,8.27
2018-09-05T09:35:26.064Z,11.30
2018-09-05T09:38:02.445Z,8.50
2018-09-05T09:40:38.804Z,8.43
2018-09-05T09:43:15.084Z,6.28
2018-09-05T09:45:51.502Z,6.37
2018-09-05T09:48:27.978Z,7.87
2018-09-05T09:51:03.734Z,7.40
2018-09-05T09:53:39.994Z,8.97
2018-09-05T09:56:16.045Z,7.03
2018-09-05T09:58:52.186Z,6.08
2018-09-05T10:01:32.401Z,7.70
2018-09-05T10:05:13.935Z,6.30
2018-09-05T10:07:54.201Z,6.70
2018-09-05T10:10:34.017Z,6.47
2018-09-05T10:13:19.703Z,6.05
2018-09-05T10:16:00.064Z,6.60
2018-09-05T10:18:38.886Z,6.57
2018-09-05T10:21:15.014Z,7.00
2018-09-05T10:23:51.007Z,7.15
2018-09-05T10:26:27.099Z,7.53
2018-09-05T10:29:03.799Z,7.55
2018-09-05T10:31:39.747Z,7.00
2018-09-05T10:34:15.813Z,6.37
2018-09-05T10:36:51.540Z,8.23
2018-09-05T10:39:27.797Z,6.75
2018-09-05T10:42:03.753Z,6.65
2018-09-05T10:44:39.729Z,6.90
2018-09-05T10:47:15.733Z,6.00
2018-09-05T10:49:51.730Z,6.30
2018-09-05T10:52:27.817Z,7.17
2018-09-05T10:55:03.754Z,6.05
2018-09-05T10:57:39.647Z,7.47
2018-09-05T11:00:15.702Z,8.08
2018-09-05T11:02:51.771Z,7.85
2018-09-05T11:05:27.714Z,7.90
2018-09-05T11:08:03.793Z,6.17
2018-09-05T11:10:39.792Z,6.72
2018-09-05T11:13:15.705Z,6.90
2018-09-05T11:15:51.765Z,7.20
2018-09-05T11:18:27.865Z,5.92
2018-09-05T11:21:04.056Z,6.50
2018-09-05T11:23:40.026Z,7.20
2018-09-05T11:26:16.741Z,6.57
2018-09-05T11:28:53.028Z,7.12
2018-09-05T11:31:30.217Z,7.95
2018-09-05T11:34:06.221Z,6.65
2018-09-05T11:36:41.838Z,6.87
2018-09-05T11:39:17.723Z,6.15
2018-09-05T11:41:53.837Z,7.67
2018-09-05T11:44:29.850Z,6.97
2018-09-05T11:47:06.606Z,6.47
2018-09-05T11:49:42.602Z,6.08
2018-09-05T11:52:18.637Z,6.25
2018-09-05T11:54:54.647Z,5.70
2018-09-05T11:57:30.525Z,6.47
2018-09-05T12:00:06.641Z,6.03
2018-09-05T12:02:43.017Z,6.80
2018-09-05T12:05:19.029Z,6.80
2018-09-05T12:07:55.053Z,6.10
2018-09-05T12:10:31.023Z,6.58
2018-09-05T12:13:07.242Z,6.33
2018-09-05T12:15:43.735Z,7.83
2018-09-05T12:18:19.974Z,6.40
2018-09-05T12:20:56.026Z,6.70
2018-09-05T12:23:32.457Z,6.80
2018-09-05T12:26:08.522Z,5.90
2018-09-05T12:28:44.834Z,5.92
2018-09-05T12:31:21.137Z,5.40
2018-09-05T12:33:57.327Z,5.87
2018-09-05T12:36:33.593Z,5.47
2018-09-05T12:39:13.858Z,6.45
2018-09-05T12:41:50.098Z,5.80
2018-09-05T12:44:26.035Z,7.10
2018-09-05T12:47:02.038Z,5.50
2018-09-05T12:49:38.057Z,5.15
2018-09-05T12:52:13.861Z,6.20
2018-09-05T12:54:50.058Z,5.67
2018-09-05T12:57:26.462Z,5.90
2018-09-05T13:00:02.863Z,6.28
2018-09-05T13:02:38.871Z,6.45
2018-09-05T13:05:15.431Z,5.47
2018-09-05T13:07:51.594Z,5.12
2018-09-05T13:10:27.801Z,5.28
2018-09-05T13:13:03.607Z,6.13
2018-09-05T13:15:40.080Z,4.92
2018-09-05T13:18:16.037Z,5.30
2018-09-05T13:20:51.897Z,6.00
2018-09-05T13:23:28.045Z,5.17
2018-09-05T13:26:04.085Z,5.80
2018-09-05T13:28:40.070Z,7.20
2018-09-05T13:31:16.104Z,5.90
2018-09-05T13:33:52.613Z,6.30
2018-09-05T13:36:29.109Z,5.65
2018-09-05T13:39:05.224Z,6.13
2018-09-05T13:41:41.874Z,5.67
2018-09-05T13:44:18.104Z,6.60
2018-09-05T13:46:53.882Z,6.40
2018-09-05T13:49:29.882Z,6.77
2018-09-05T13:52:08.883Z,6.25
2018-09-05T13:54:45.066Z,6.23
2018-09-05T13:57:20.890Z,7.67
2018-09-05T13:59:56.929Z,5.87
2018-09-05T14:02:32.886Z,6.60
2018-09-05T14:05:08.876Z,6.85
2018-09-05T14:07:45.513Z,6.50
2018-09-05T14:10:21.774Z,6.60
2018-09-05T14:12:57.792Z,6.40
2018-09-05T14:15:34.085Z,8.08
2018-09-05T14:18:10.345Z,8.20
2018-09-05T14:20:46.631Z,6.50
2018-09-05T14:23:22.892Z,6.77
2018-09-05T14:25:58.896Z,6.70
2018-09-05T14:28:35.078Z,5.95
2018-09-05T14:31:11.702Z,5.08
2018-09-05T14:33:48.023Z,4.90
2018-09-05T14:36:25.114Z,5.15
2018-09-05T14:39:01.077Z,10.58
2018-09-05T14:41:37.069Z,6.15
2018-09-05T14:44:13.258Z,6.25
2018-09-05T14:46:49.196Z,5.22
2018-09-05T14:49:25.141Z,8.08
2018-09-05T14:52:01.906Z,5.23
2018-09-05T14:54:37.793Z,5.05
2018-09-05T14:57:14.213Z,5.50
2018-09-05T14:59:50.555Z,9.65
2018-09-05T15:02:27.057Z,6.00
2018-09-05T15:05:03.826Z,8.97
2018-09-05T15:07:40.242Z,12.73
2018-09-05T15:10:16.282Z,5.70
2018-09-05T15:12:52.529Z,4.33
2018-09-05T15:15:28.905Z,4.72
2018-09-05T15:18:04.914Z,3.70
2018-09-05T15:20:41.115Z,3.08
2018-09-05T15:23:17.960Z,3.70
2018-09-05T15:25:54.117Z,3.80
2018-09-05T15:28:29.918Z,4.00
2018-09-05T15:31:06.041Z,4.70
2018-09-05T15:33:42.091Z,3.58
2018-09-05T15:36:18.277Z,3.77
2018-09-05T15:38:54.550Z,3.50
2018-09-05T15:41:30.751Z,4.50
2018-09-05T15:44:07.132Z,4.78
2018-09-05T15:46:43.305Z,4.37
2018-09-05T15:49:19.845Z,3.62
2018-09-05T15:51:57.649Z,4.60
2018-09-05T15:54:33.985Z,6.45
2018-09-05T15:57:10.558Z,10.45
2018-09-05T15:59:46.955Z,11.48
2018-09-05T16:02:22.490Z,12.30
2018-09-05T16:04:58.266Z,12.10
2018-09-05T16:07:34.093Z,11.53
2018-09-05T16:10:10.130Z,11.78
2018-09-05T16:12:45.842Z,10.13
2018-09-05T16:15:22.119Z,9.83
2018-09-05T16:17:57.918Z,10.32
2018-09-05T16:20:33.851Z,12.30
2018-09-05T16:23:09.664Z,9.53
2018-09-05T16:25:45.117Z,9.97
2018-09-05T16:28:20.699Z,11.10
2018-09-05T16:30:56.114Z,10.53
2018-09-05T16:33:31.689Z,11.07
2018-09-05T16:36:07.982Z,10.70
2018-09-05T16:38:44.155Z,12.10
2018-09-05T16:41:19.839Z,11.70
2018-09-05T16:43:55.382Z,11.27
2018-09-05T16:46:31.173Z,11.83
2018-09-05T16:49:07.067Z,11.63
2018-09-05T16:51:42.750Z,11.47
2018-09-05T16:54:18.701Z,12.70
2018-09-05T16:56:54.575Z,12.60
2018-09-05T16:59:30.650Z,11.68
2018-09-05T17:02:06.122Z,12.55
2018-09-05T17:04:41.666Z,12.20
2018-09-05T17:07:17.321Z,12.18
2018-09-05T17:09:53.012Z,11.33
2018-09-05T17:12:28.952Z,12.00
2018-09-05T17:15:04.535Z,12.57
2018-09-05T17:17:40.190Z,11.75
2018-09-05T17:20:15.869Z,12.23
2018-09-05T17:22:51.708Z,11.97
2018-09-05T17:25:27.352Z,12.67
2018-09-05T17:28:03.235Z,12.33
2018-09-05T17:30:38.987Z,11.60
2018-09-05T17:33:14.629Z,12.50
2018-09-05T17:35:50.514Z,11.75
2018-09-05T17:38:26.162Z,11.53
2018-09-05T17:41:01.862Z,11.90
2018-09-05T17:43:37.782Z,12.00
2018-09-05T17:46:13.930Z,12.88
2018-09-05T17:48:50.732Z,13.55
2018-09-05T17:51:26.619Z,12.93
2018-09-05T17:54:02.526Z,12.33
2018-09-05T17:56:38.234Z,14.80
2018-09-05T17:59:13.939Z,12.28
2018-09-05T18:01:49.947Z,16.02
2018-09-05T18:04:25.821Z,14.70
2018-09-05T18:07:01.774Z,13.90
2018-09-05T18:09:37.590Z,14.70
2018-09-05T18:12:13.281Z,14.33
2018-09-05T18:14:49.470Z,14.73
2018-09-05T18:17:25.168Z,14.38
2018-09-05T18:20:00.776Z,14.00
2018-09-05T18:22:36.660Z,14.73
2018-09-05T18:25:13.514Z,14.07
2018-09-05T18:27:49.351Z,14.95
2018-09-05T18:30:24.836Z,13.90
2018-09-05T18:33:00.774Z,14.83
2018-09-05T18:35:36.686Z,14.23
2018-09-05T18:38:12.629Z,15.30
2018-09-05T18:40:48.621Z,15.50
2018-09-05T18:43:25.634Z,16.40
2018-09-05T18:46:01.221Z,15.13
2018-09-05T18:48:36.802Z,15.87
2018-09-05T18:51:12.734Z,15.50
2018-09-05T18:53:48.648Z,15.37
2018-09-05T18:56:24.648Z,15.50
2018-09-05T18:59:01.325Z,16.12
2018-09-05T19:01:37.367Z,15.20
2018-09-05T19:04:13.222Z,15.37
2018-09-05T19:06:49.658Z,15.90
2018-09-05T19:09:26.205Z,18.67
2018-09-05T19:12:02.356Z,15.80
2018-09-05T19:16:16.560Z,15.78
2018-09-05T19:18:53.173Z,16.10
2018-09-05T19:21:29.115Z,18.37
2018-09-05T19:24:05.137Z,17.77
2018-09-05T19:26:41.174Z,16.60
2018-09-05T19:29:17.068Z,16.57
2018-09-05T19:31:53.010Z,18.55
2018-09-05T19:34:29.210Z,18.75
2018-09-05T19:37:05.177Z,18.80
2018-09-05T19:39:41.244Z,18.40
2018-09-05T19:42:17.137Z,18.00
2018-09-05T19:44:53.121Z,17.70
2018-09-05T19:47:29.178Z,19.00
2018-09-05T19:50:05.260Z,17.57
2018-09-05T19:52:41.610Z,18.10
2018-09-05T19:55:17.666Z,19.15
2018-09-05T19:57:53.647Z,17.15
2018-09-05T20:00:30.014Z,19.77
2018-09-05T20:03:05.969Z,16.80
2018-09-05T20:05:43.287Z,19.52
2018-09-05T20:08:19.348Z,17.20
2018-09-05T20:10:55.416Z,17.73
2018-09-05T20:13:31.685Z,17.80
2018-09-05T20:16:08.177Z,18.40
2018-09-05T20:18:44.397Z,17.50
2018-09-05T20:21:20.673Z,17.60
2018-09-05T20:23:56.709Z,17.50
2018-09-05T20:26:32.897Z,16.83
2018-09-05T20:29:09.195Z,17.00
2018-09-05T20:31:45.417Z,17.30
2018-09-05T20:34:21.753Z,17.60
2018-09-05T20:36:57.982Z,17.20
2018-09-05T20:39:33.928Z,16.67
2018-09-05T20:42:10.027Z,17.37
2018-09-05T20:44:46.241Z,16.93
2018-09-05T20:47:23.638Z,17.90
2018-09-05T20:50:00.784Z,17.15
2018-09-05T20:52:37.265Z,17.45
2018-09-05T20:55:13.378Z,17.10
2018-09-05T20:57:49.713Z,16.80
2018-09-05T21:00:25.879Z,17.02
2018-09-05T21:03:02.119Z,17.90
2018-09-05T21:05:38.406Z,16.75
2018-09-05T21:08:14.746Z,17.00
2018-09-05T21:10:50.607Z,16.80
2018-09-05T21:13:26.789Z,17.73
2018-09-05T21:16:03.393Z,17.48
2018-09-05T21:18:39.770Z,16.57
2018-09-05T21:21:15.960Z,16.90
2018-09-05T21:23:53.033Z,15.70
2018-09-05T21:26:29.024Z,17.90
2018-09-05T21:29:05.046Z,16.80
2018-09-05T21:31:41.037Z,16.55
2018-09-05T21:34:17.238Z,16.27
2018-09-05T21:36:53.214Z,15.90
2018-09-05T21:39:29.370Z,16.20
2018-09-05T21:42:06.213Z,16.37
2018-09-05T21:44:42.885Z,17.17
2018-09-05T21:47:19.227Z,17.12
2018-09-05T21:49:54.833Z,16.90
2018-09-05T21:52:32.045Z,16.02
2018-09-05T21:55:08.088Z,16.07
2018-09-05T21:57:45.339Z,16.25
2018-09-05T22:00:21.686Z,15.10
2018-09-05T22:02:58.053Z,16.00
2018-09-05T22:05:35.952Z,15.85
2018-09-05T22:08:11.885Z,16.47
2018-09-05T22:10:48.015Z,15.68
2018-09-05T22:13:25.730Z,14.00
2018-09-05T22:16:01.954Z,15.20
2018-09-05T22:18:38.127Z,16.00
2018-09-05T22:21:15.007Z,14.67
2018-09-05T22:23:51.061Z,14.75
2018-09-05T22:26:27.022Z,14.10
2018-09-05T22:29:03.226Z,13.35
2018-09-05T22:31:39.547Z,14.00
2018-09-05T22:34:15.977Z,14.30
2018-09-05T22:37:18.066Z,14.95
2018-09-05T22:39:54.425Z,13.98
2018-09-05T22:42:30.812Z,13.60
2018-09-05T22:45:20.676Z,15.35
2018-09-05T22:50:55.501Z,14.53
2018-09-05T22:58:04.189Z,15.50
2018-09-05T23:04:00.358Z,12.50
2018-09-05T23:08:48.096Z,12.87
2018-09-05T23:11:37.849Z,12.03
2018-09-05T23:14:41.802Z,12.78
2018-09-05T23:18:34.617Z,9.83
2018-09-05T23:21:24.838Z,11.87
2018-09-05T23:24:08.449Z,11.15
2018-09-05T23:26:44.761Z,11.08
2018-09-05T23:29:22.042Z,10.47
2018-09-05T23:31:58.225Z,10.60
2018-09-05T23:34:34.252Z,11.05
2018-09-05T23:37:10.303Z,9.73
2018-09-05T23:39:45.991Z,9.20
2018-09-05T23:42:22.081Z,9.40
2018-09-05T23:44:57.980Z,10.00
2018-09-05T23:47:34.101Z,9.25
2018-09-05T23:50:10.316Z,8.95
2018-09-05T23:52:46.299Z,9.00
2018-09-05T23:55:22.768Z,9.13
2018-09-05T23:57:58.873Z,8.30
